createdAt,value
2014-08-06T00:00:16.184Z,7
2014-08-06T00:00:34.527Z,7
2014-08-06T00:00:52.857Z,7
2014-08-06T00:01:11.186Z,7
2014-08-06T00:01:29.514Z,7
2014-08-06T00:01:47.857Z,7
2014-08-06T00:02:06.172Z,6
2014-08-06T00:02:24.516Z,6
2014-08-06T00:02:42.844Z,6
2014-08-06T00:03:01.174Z,6
2014-08-06T00:03:19.502Z,6
2014-08-06T00:03:37.830Z,6
2014-08-06T00:03:56.176Z,6
2014-08-06T00:04:14.504Z,6
2014-08-06T00:04:32.832Z,6
2014-08-06T00:04:51.160Z,6
2014-08-06T00:05:09.490Z,6
2014-08-06T00:05:27.819Z,6
2014-08-06T00:05:46.162Z,6
2014-08-06T00:06:04.696Z,6
2014-08-06T00:06:22.836Z,6
2014-08-06T00:06:41.164Z,6
2014-08-06T00:06:59.493Z,6
2014-08-06T00:07:17.837Z,6
2014-08-06T00:07:36.165Z,6
2014-08-06T00:07:54.556Z,6
2014-08-06T00:08:12.887Z,6
2014-08-06T00:08:31.215Z,6
2014-08-06T00:08:49.559Z,6
2014-08-06T00:09:07.889Z,6
2014-08-06T00:09:26.217Z,6
2014-08-06T00:09:44.545Z,6
2014-08-06T00:10:02.874Z,6
2014-08-06T00:10:21.203Z,6
2014-08-06T00:10:39.546Z,6
2014-08-06T00:10:57.859Z,6
2014-08-06T00:11:16.206Z,6
2014-08-06T00:11:34.534Z,6
2014-08-06T00:11:52.862Z,6
2014-08-06T00:12:11.192Z,6
2014-08-06T00:12:29.520Z,6
2014-08-06T00:12:47.864Z,6
2014-08-06T00:13:06.194Z,6
2014-08-06T00:13:24.522Z,6
2014-08-06T00:13:43.053Z,6
2014-08-06T00:14:01.178Z,6
2014-08-06T00:14:19.523Z,6
2014-08-06T00:14:38.054Z,6
2014-08-06T00:14:56.179Z,6
2014-08-06T00:15:14.714Z,6
2014-08-06T00:15:32.839Z,6
2014-08-06T00:15:51.182Z,6
2014-08-06T00:16:09.511Z,6
2014-08-06T00:16:27.840Z,6
2014-08-06T00:16:46.168Z,6
2014-08-06T00:17:04.498Z,6
2014-08-06T00:17:22.842Z,6
2014-08-06T00:17:41.170Z,7
2014-08-06T00:17:59.498Z,6
2014-08-06T00:18:17.828Z,6
2014-08-06T00:18:36.172Z,6
2014-08-06T00:18:54.484Z,7
2014-08-06T00:19:12.814Z,6
2014-08-06T00:19:31.158Z,6
2014-08-06T00:19:49.486Z,6
2014-08-06T00:20:07.815Z,6
2014-08-06T00:20:26.143Z,6
2014-08-06T00:20:44.487Z,6
2014-08-06T00:21:02.815Z,6
2014-08-06T00:21:21.145Z,6
2014-08-06T00:21:39.474Z,6
2014-08-06T00:21:57.802Z,5
2014-08-06T00:22:16.133Z,5
2014-08-06T00:22:34.461Z,5
2014-08-06T00:22:52.789Z,5
2014-08-06T00:23:11.135Z,5
2014-08-06T00:23:29.463Z,5
2014-08-06T00:23:47.791Z,5
2014-08-06T00:24:06.119Z,5
2014-08-06T00:24:24.449Z,5
2014-08-06T00:24:42.777Z,5
2014-08-06T00:25:01.121Z,5
2014-08-06T00:25:19.450Z,5
2014-08-06T00:25:37.778Z,5
2014-08-06T00:25:56.107Z,5
2014-08-06T00:26:14.438Z,5
2014-08-06T00:26:32.766Z,5
2014-08-06T00:26:51.094Z,5
2014-08-06T00:27:09.438Z,5
2014-08-06T00:27:27.767Z,5
2014-08-06T00:27:46.095Z,5
2014-08-06T00:28:04.423Z,5
2014-08-06T00:28:22.753Z,6
2014-08-06T00:28:41.097Z,5
2014-08-06T00:28:59.425Z,6
2014-08-06T00:29:17.755Z,5
2014-08-06T00:29:36.083Z,6
2014-08-06T00:29:54.411Z,6
2014-08-06T00:30:12.740Z,5
2014-08-06T00:30:31.070Z,6
2014-08-06T00:30:49.413Z,5
2014-08-06T00:31:07.742Z,5
2014-08-06T00:31:26.072Z,5
2014-08-06T00:31:44.400Z,5
2014-08-06T00:32:02.728Z,5
2014-08-06T00:32:21.058Z,5
2014-08-06T00:32:39.402Z,5
2014-08-06T00:32:57.730Z,5
2014-08-06T00:33:16.058Z,6
2014-08-06T00:33:34.388Z,6
2014-08-06T00:33:52.685Z,6
2014-08-06T00:34:11.044Z,7
2014-08-06T00:34:29.375Z,6
2014-08-06T00:34:47.718Z,6
2014-08-06T00:35:06.046Z,6
2014-08-06T00:35:24.378Z,6
2014-08-06T00:35:42.706Z,6
2014-08-06T00:36:01.237Z,6
2014-08-06T00:36:19.378Z,6
2014-08-06T00:36:37.707Z,6
2014-08-06T00:36:56.050Z,7
2014-08-06T00:37:14.379Z,6
2014-08-06T00:37:32.709Z,6
2014-08-06T00:37:51.037Z,6
2014-08-06T00:38:09.365Z,6
2014-08-06T00:38:27.711Z,6
2014-08-06T00:38:46.039Z,6
2014-08-06T00:39:04.367Z,6
2014-08-06T00:39:22.711Z,6
2014-08-06T00:39:41.041Z,6
2014-08-06T00:39:59.369Z,6
2014-08-06T00:40:17.697Z,6
2014-08-06T00:40:36.027Z,6
2014-08-06T00:40:54.355Z,6
2014-08-06T00:41:12.715Z,6
2014-08-06T00:41:31.029Z,6
2014-08-06T00:41:49.342Z,6
2014-08-06T00:42:07.685Z,6
2014-08-06T00:42:26.014Z,6
2014-08-06T00:42:44.343Z,6
2014-08-06T00:43:02.671Z,6
2014-08-06T00:43:21.015Z,7
2014-08-06T00:43:39.345Z,7
2014-08-06T00:43:57.673Z,7
2014-08-06T00:44:16.001Z,7
2014-08-06T00:44:34.332Z,6
2014-08-06T00:44:52.660Z,6
2014-08-06T00:45:10.988Z,6
2014-08-06T00:45:29.332Z,6
2014-08-06T00:45:47.661Z,6
2014-08-06T00:46:05.989Z,5
2014-08-06T00:46:24.317Z,5
2014-08-06T00:46:42.649Z,5
2014-08-06T00:47:00.992Z,5
2014-08-06T00:47:19.320Z,5
2014-08-06T00:47:37.651Z,5
2014-08-06T00:47:55.979Z,5
2014-08-06T00:48:14.307Z,5
2014-08-06T00:48:32.635Z,5
2014-08-06T00:48:50.964Z,5
2014-08-06T00:49:09.308Z,5
2014-08-06T00:49:27.636Z,4
2014-08-06T00:49:45.966Z,5
2014-08-06T00:50:04.310Z,5
2014-08-06T00:50:22.638Z,5
2014-08-06T00:50:40.969Z,5
2014-08-06T00:50:59.313Z,5
2014-08-06T00:51:17.641Z,4
2014-08-06T00:51:35.969Z,5
2014-08-06T00:51:54.299Z,4
2014-08-06T00:52:12.627Z,4
2014-08-06T00:52:30.971Z,4
2014-08-06T00:52:49.300Z,4
2014-08-06T00:53:07.628Z,4
2014-08-06T00:53:25.956Z,4
2014-08-06T00:53:44.302Z,4
2014-08-06T00:54:02.630Z,4
2014-08-06T00:54:20.958Z,4
2014-08-06T00:54:39.287Z,4
2014-08-06T00:54:57.618Z,4
2014-08-06T00:55:15.946Z,4
2014-08-06T00:55:34.274Z,4
2014-08-06T00:55:52.806Z,4
2014-08-06T00:56:10.931Z,4
2014-08-06T00:56:29.275Z,4
2014-08-06T00:56:47.606Z,4
2014-08-06T00:57:05.934Z,4
2014-08-06T00:57:24.262Z,4
2014-08-06T00:57:42.590Z,4
2014-08-06T00:58:00.935Z,4
2014-08-06T00:58:19.263Z,4
2014-08-06T00:58:37.591Z,4
2014-08-06T00:58:55.937Z,4
2014-08-06T00:59:14.265Z,4
2014-08-06T00:59:32.593Z,4
2014-08-06T00:59:50.922Z,4
2014-08-06T01:00:09.268Z,4
2014-08-06T01:00:27.596Z,4
2014-08-06T01:00:45.925Z,4
2014-08-06T01:01:04.254Z,4
2014-08-06T01:01:22.582Z,4
2014-08-06T01:01:40.910Z,4
2014-08-06T01:01:59.238Z,5
2014-08-06T01:02:17.568Z,4
2014-08-06T01:02:35.912Z,4
2014-08-06T01:02:54.240Z,4
2014-08-06T01:03:12.571Z,4
2014-08-06T01:03:30.899Z,4
2014-08-06T01:03:49.431Z,4
2014-08-06T01:04:07.587Z,4
2014-08-06T01:04:25.901Z,4
2014-08-06T01:04:44.229Z,4
2014-08-06T01:05:02.558Z,4
2014-08-06T01:05:20.887Z,4
2014-08-06T01:05:39.215Z,4
2014-08-06T01:05:57.543Z,4
2014-08-06T01:06:15.887Z,4
2014-08-06T01:06:34.217Z,4
2014-08-06T01:06:52.545Z,4
2014-08-06T01:07:10.873Z,4
2014-08-06T01:07:29.204Z,4
2014-08-06T01:07:47.548Z,4
2014-08-06T01:08:05.876Z,4
2014-08-06T01:08:24.204Z,4
2014-08-06T01:08:42.534Z,4
2014-08-06T01:09:00.862Z,4
2014-08-06T01:09:19.206Z,4
2014-08-06T01:09:37.723Z,4
2014-08-06T01:09:55.863Z,4
2014-08-06T01:10:14.192Z,4
2014-08-06T01:10:32.520Z,4
2014-08-06T01:10:50.851Z,2
2014-08-06T01:11:09.179Z,2
2014-08-06T01:11:27.507Z,2
2014-08-06T01:11:45.837Z,2
2014-08-06T01:12:04.384Z,2
2014-08-06T01:12:22.509Z,2
2014-08-06T01:12:41.040Z,2
2014-08-06T01:12:59.167Z,2
2014-08-06T01:13:17.495Z,2
2014-08-06T01:13:35.839Z,2
2014-08-06T01:13:54.169Z,2
2014-08-06T01:14:12.497Z,2
2014-08-06T01:14:30.826Z,2
2014-08-06T01:14:49.154Z,2
2014-08-06T01:15:07.484Z,2
2014-08-06T01:15:25.812Z,2
2014-08-06T01:15:44.140Z,2
2014-08-06T01:16:02.470Z,2
2014-08-06T01:16:20.798Z,2
2014-08-06T01:16:39.142Z,2
2014-08-06T01:16:57.470Z,2
2014-08-06T01:17:15.800Z,2
2014-08-06T01:17:34.128Z,2
2014-08-06T01:17:52.457Z,2
2014-08-06T01:18:10.787Z,2
2014-08-06T01:18:29.115Z,2
2014-08-06T01:18:47.459Z,2
2014-08-06T01:19:05.787Z,2
2014-08-06T01:19:24.118Z,3
2014-08-06T01:19:42.446Z,2
2014-08-06T01:20:00.774Z,2
2014-08-06T01:20:19.307Z,3
2014-08-06T01:20:37.635Z,2
2014-08-06T01:20:55.776Z,2
2014-08-06T01:21:14.104Z,2
2014-08-06T01:21:32.434Z,2
2014-08-06T01:21:50.762Z,2
2014-08-06T01:22:09.091Z,2
2014-08-06T01:22:27.420Z,2
2014-08-06T01:22:45.763Z,2
2014-08-06T01:23:04.092Z,2
2014-08-06T01:23:22.420Z,2
2014-08-06T01:23:40.760Z,3
2014-08-06T01:23:59.088Z,3
2014-08-06T01:24:17.432Z,3
2014-08-06T01:24:35.803Z,3
2014-08-06T01:24:54.131Z,3
2014-08-06T01:25:12.459Z,3
2014-08-06T01:25:30.787Z,3
2014-08-06T01:25:49.162Z,3
2014-08-06T01:26:07.506Z,3
2014-08-06T01:26:25.819Z,3
2014-08-06T01:26:44.205Z,2
2014-08-06T01:27:02.533Z,3
2014-08-06T01:27:20.862Z,2
2014-08-06T01:27:39.190Z,2
2014-08-06T01:27:57.580Z,2
2014-08-06T01:28:15.909Z,3
2014-08-06T01:28:34.237Z,3
2014-08-06T01:28:52.797Z,3
2014-08-06T01:29:10.922Z,2
2014-08-06T01:29:29.266Z,2
2014-08-06T01:29:47.594Z,2
2014-08-06T01:30:05.940Z,2
2014-08-06T01:30:24.268Z,2
2014-08-06T01:30:42.596Z,2
2014-08-06T01:31:00.957Z,2
2014-08-06T01:31:19.285Z,2
2014-08-06T01:31:37.613Z,2
2014-08-06T01:31:55.941Z,2
2014-08-06T01:32:14.287Z,2
2014-08-06T01:32:32.616Z,2
2014-08-06T01:32:50.944Z,2
2014-08-06T01:33:09.289Z,2
2014-08-06T01:33:27.633Z,2
2014-08-06T01:33:45.961Z,2
2014-08-06T01:34:04.298Z,2
2014-08-06T01:34:22.626Z,2
2014-08-06T01:34:40.954Z,2
2014-08-06T01:34:59.282Z,2
2014-08-06T01:35:17.633Z,2
2014-08-06T01:35:35.961Z,2
2014-08-06T01:35:54.289Z,2
2014-08-06T01:36:12.624Z,2
2014-08-06T01:36:30.952Z,2
2014-08-06T01:36:49.281Z,2
2014-08-06T01:37:07.616Z,2
2014-08-06T01:37:25.959Z,2
2014-08-06T01:37:44.288Z,2
2014-08-06T01:38:02.616Z,2
2014-08-06T01:38:20.953Z,2
2014-08-06T01:38:39.281Z,2
2014-08-06T01:38:57.625Z,2
2014-08-06T01:39:15.957Z,7
2014-08-06T01:39:34.285Z,2
2014-08-06T01:39:52.597Z,2
2014-08-06T01:40:10.945Z,2
2014-08-06T01:40:29.273Z,2
2014-08-06T01:40:47.601Z,2
2014-08-06T01:41:05.930Z,2
2014-08-06T01:41:24.262Z,2
2014-08-06T01:41:42.590Z,2
2014-08-06T01:42:00.934Z,2
2014-08-06T01:42:19.266Z,2
2014-08-06T01:42:37.594Z,2
2014-08-06T01:42:56.125Z,2
2014-08-06T01:43:14.269Z,2
2014-08-06T01:43:32.597Z,2
2014-08-06T01:43:50.941Z,2
2014-08-06T01:44:09.300Z,2
2014-08-06T01:44:27.615Z,2
2014-08-06T01:44:45.944Z,2
2014-08-06T01:45:04.272Z,2
2014-08-06T01:45:22.603Z,2
2014-08-06T01:45:40.931Z,2
2014-08-06T01:45:59.259Z,2
2014-08-06T01:46:17.590Z,2
2014-08-06T01:46:35.934Z,2
2014-08-06T01:46:54.262Z,2
2014-08-06T01:47:12.590Z,2
2014-08-06T01:47:30.920Z,2
2014-08-06T01:47:49.264Z,2
2014-08-06T01:48:07.592Z,2
2014-08-06T01:48:25.923Z,2
2014-08-06T01:48:44.251Z,2
2014-08-06T01:49:02.580Z,2
2014-08-06T01:49:20.910Z,2
2014-08-06T01:49:39.238Z,2
2014-08-06T01:49:57.566Z,3
2014-08-06T01:50:15.894Z,2
2014-08-06T01:50:34.240Z,2
2014-08-06T01:50:52.568Z,2
2014-08-06T01:51:10.896Z,2
2014-08-06T01:51:29.226Z,2
2014-08-06T01:51:47.554Z,2
2014-08-06T01:52:05.882Z,2
2014-08-06T01:52:24.414Z,4
2014-08-06T01:52:42.556Z,4
2014-08-06T01:53:00.884Z,4
2014-08-06T01:53:19.213Z,4
2014-08-06T01:53:37.543Z,4
2014-08-06T01:53:55.871Z,3
2014-08-06T01:54:14.199Z,3
2014-08-06T01:54:32.543Z,3
2014-08-06T01:54:50.873Z,3
2014-08-06T01:55:09.201Z,3
2014-08-06T01:55:27.529Z,2
2014-08-06T01:55:45.859Z,3
2014-08-06T01:56:04.187Z,3
2014-08-06T01:56:22.531Z,3
2014-08-06T01:56:40.859Z,3
2014-08-06T01:56:59.174Z,3
2014-08-06T01:57:17.517Z,3
2014-08-06T01:57:35.846Z,3
2014-08-06T01:57:54.176Z,3
2014-08-06T01:58:12.504Z,3
2014-08-06T01:58:30.832Z,3
2014-08-06T01:58:49.160Z,3
2014-08-06T01:59:07.491Z,3
2014-08-06T01:59:25.819Z,3
2014-08-06T01:59:44.147Z,3
2014-08-06T02:00:02.478Z,3
2014-08-06T02:00:20.806Z,3
2014-08-06T02:00:39.134Z,3
2014-08-06T02:00:57.462Z,2
2014-08-06T02:01:15.807Z,2
2014-08-06T02:01:34.119Z,2
2014-08-06T02:01:52.463Z,2
2014-08-06T02:02:10.793Z,2
2014-08-06T02:02:29.121Z,2
2014-08-06T02:02:47.449Z,2
2014-08-06T02:03:05.777Z,2
2014-08-06T02:03:24.108Z,2
2014-08-06T02:03:42.436Z,2
2014-08-06T02:04:00.764Z,2
2014-08-06T02:04:19.095Z,2
2014-08-06T02:04:37.439Z,2
2014-08-06T02:04:55.767Z,2
2014-08-06T02:05:14.095Z,2
2014-08-06T02:05:32.424Z,2
2014-08-06T02:05:50.752Z,2
2014-08-06T02:06:09.080Z,2
2014-08-06T02:06:27.411Z,2
2014-08-06T02:06:45.740Z,2
2014-08-06T02:07:04.068Z,2
2014-08-06T02:07:22.398Z,2
2014-08-06T02:07:40.726Z,2
2014-08-06T02:07:59.054Z,2
2014-08-06T02:08:17.382Z,2
2014-08-06T02:08:35.712Z,2
2014-08-06T02:08:54.040Z,2
2014-08-06T02:09:12.369Z,2
2014-08-06T02:09:30.699Z,1
2014-08-06T02:09:49.027Z,1
2014-08-06T02:10:07.355Z,1
2014-08-06T02:10:25.683Z,1
2014-08-06T02:10:44.012Z,1
2014-08-06T02:11:02.340Z,1
2014-08-06T02:11:20.668Z,1
2014-08-06T02:11:38.999Z,1
2014-08-06T02:11:57.327Z,1
2014-08-06T02:12:15.670Z,1
2014-08-06T02:12:33.999Z,1
2014-08-06T02:12:52.314Z,1
2014-08-06T02:13:10.642Z,1
2014-08-06T02:13:28.986Z,1
2014-08-06T02:13:47.300Z,1
2014-08-06T02:14:05.644Z,1
2014-08-06T02:14:23.957Z,1
2014-08-06T02:14:42.285Z,1
2014-08-06T02:15:00.631Z,1
2014-08-06T02:15:18.959Z,1
2014-08-06T02:15:37.271Z,1
2014-08-06T02:15:55.617Z,1
2014-08-06T02:16:13.945Z,1
2014-08-06T02:16:32.273Z,1
2014-08-06T02:16:50.602Z,1
2014-08-06T02:17:08.930Z,1
2014-08-06T02:17:27.259Z,1
2014-08-06T02:17:45.587Z,1
2014-08-06T02:18:03.918Z,1
2014-08-06T02:18:22.246Z,1
2014-08-06T02:18:40.590Z,1
2014-08-06T02:18:58.920Z,1
2014-08-06T02:19:17.248Z,1
2014-08-06T02:19:35.576Z,1
2014-08-06T02:19:53.906Z,1
2014-08-06T02:20:12.250Z,1
2014-08-06T02:20:30.562Z,1
2014-08-06T02:20:48.891Z,1
2014-08-06T02:21:07.220Z,1
2014-08-06T02:21:25.548Z,1
2014-08-06T02:21:43.892Z,1
2014-08-06T02:22:02.223Z,1
2014-08-06T02:22:20.551Z,1
2014-08-06T02:22:38.879Z,1
2014-08-06T02:22:57.412Z,1
2014-08-06T02:23:15.537Z,1
2014-08-06T02:23:33.865Z,1
2014-08-06T02:23:52.193Z,0
2014-08-06T02:24:10.726Z,1
2014-08-06T02:24:28.851Z,1
2014-08-06T02:24:47.179Z,1
2014-08-06T02:25:05.712Z,0
2014-08-06T02:25:23.837Z,0
2014-08-06T02:25:42.165Z,0
2014-08-06T02:26:00.495Z,1
2014-08-06T02:26:18.823Z,0
2014-08-06T02:26:37.152Z,1
2014-08-06T02:26:55.480Z,0
2014-08-06T02:27:13.825Z,0
2014-08-06T02:27:32.154Z,0
2014-08-06T02:27:50.497Z,0
2014-08-06T02:28:09.016Z,0
2014-08-06T02:28:27.157Z,0
2014-08-06T02:28:45.485Z,0
2014-08-06T02:29:04.001Z,0
2014-08-06T02:29:22.126Z,0
2014-08-06T02:29:40.454Z,0
2014-08-06T02:29:58.798Z,0
2014-08-06T02:30:17.113Z,0
2014-08-06T02:30:35.441Z,0
2014-08-06T02:30:53.769Z,0
2014-08-06T02:31:12.099Z,0
2014-08-06T02:31:30.427Z,0
2014-08-06T02:31:48.755Z,0
2014-08-06T02:32:07.086Z,0
2014-08-06T02:32:25.415Z,0
2014-08-06T02:32:43.758Z,0
2014-08-06T02:33:02.071Z,0
2014-08-06T02:33:20.400Z,0
2014-08-06T02:33:38.744Z,0
2014-08-06T02:33:57.056Z,0
2014-08-06T02:34:15.386Z,0
2014-08-06T02:34:33.714Z,0
2014-08-06T02:34:52.043Z,0
2014-08-06T02:35:10.373Z,0
2014-08-06T02:35:28.701Z,0
2014-08-06T02:35:47.029Z,0
2014-08-06T02:36:05.373Z,0
2014-08-06T02:36:23.703Z,0
2014-08-06T02:36:42.031Z,0
2014-08-06T02:37:00.359Z,0
2014-08-06T02:37:18.705Z,0
2014-08-06T02:37:36.986Z,0
2014-08-06T02:37:55.564Z,0
2014-08-06T02:38:13.894Z,0
2014-08-06T02:38:32.019Z,0
2014-08-06T02:38:50.347Z,0
2014-08-06T02:39:08.676Z,0
2014-08-06T02:39:27.021Z,0
2014-08-06T02:39:45.349Z,0
2014-08-06T02:40:03.678Z,0
2014-08-06T02:40:22.210Z,0
2014-08-06T02:40:40.335Z,0
2014-08-06T02:40:58.663Z,0
2014-08-06T02:41:16.994Z,0
2014-08-06T02:41:35.525Z,0
2014-08-06T02:41:53.650Z,0
2014-08-06T02:42:11.978Z,0
2014-08-06T02:42:30.324Z,0
2014-08-06T02:42:48.652Z,0
2014-08-06T02:43:06.980Z,0
2014-08-06T02:43:25.311Z,0
2014-08-06T02:43:43.654Z,0
2014-08-06T02:44:01.967Z,0
2014-08-06T02:44:20.313Z,0
2014-08-06T02:44:38.641Z,0
2014-08-06T02:44:56.969Z,0
2014-08-06T02:45:15.297Z,0
2014-08-06T02:45:33.610Z,0
2014-08-06T02:45:52.157Z,0
2014-08-06T02:46:10.298Z,0
2014-08-06T02:46:28.628Z,0
2014-08-06T02:46:46.956Z,0
2014-08-06T02:47:05.284Z,0
2014-08-06T02:47:23.614Z,0
2014-08-06T02:47:41.943Z,0
2014-08-06T02:48:00.271Z,0
2014-08-06T02:48:18.599Z,0
2014-08-06T02:48:36.899Z,0
2014-08-06T02:48:55.274Z,0
2014-08-06T02:49:13.586Z,0
2014-08-06T02:49:31.931Z,0
2014-08-06T02:49:50.259Z,0
2014-08-06T02:50:08.587Z,0
2014-08-06T02:50:26.918Z,0
2014-08-06T02:50:45.246Z,0
2014-08-06T02:51:03.575Z,0
2014-08-06T02:51:21.871Z,0
2014-08-06T02:51:40.436Z,0
2014-08-06T02:51:58.577Z,0
2014-08-06T02:52:16.905Z,0
2014-08-06T02:52:35.234Z,0
2014-08-06T02:52:53.562Z,0
2014-08-06T02:53:11.890Z,0
2014-08-06T02:53:30.220Z,0
2014-08-06T02:53:48.548Z,0
2014-08-06T02:54:06.876Z,0
2014-08-06T02:54:25.207Z,0
2014-08-06T02:54:43.550Z,0
2014-08-06T02:55:01.863Z,0
2014-08-06T02:55:20.207Z,0
2014-08-06T02:55:38.537Z,0
2014-08-06T02:55:56.880Z,0
2014-08-06T02:56:15.209Z,0
2014-08-06T02:56:33.539Z,0
2014-08-06T02:56:52.070Z,0
2014-08-06T02:57:10.601Z,0
2014-08-06T02:57:28.728Z,0
2014-08-06T02:57:47.072Z,0
2014-08-06T02:58:05.400Z,0
2014-08-06T02:58:23.728Z,0
2014-08-06T02:58:42.058Z,0
2014-08-06T02:59:00.386Z,0
2014-08-06T02:59:18.715Z,0
2014-08-06T02:59:37.044Z,0
2014-08-06T02:59:55.341Z,0
2014-08-06T03:00:13.716Z,0
2014-08-06T03:00:32.047Z,0
2014-08-06T03:00:50.375Z,0
2014-08-06T03:01:08.703Z,0
2014-08-06T03:01:27.031Z,0
2014-08-06T03:01:45.376Z,0
2014-08-06T03:02:03.704Z,0
2014-08-06T03:02:22.032Z,0
2014-08-06T03:02:40.363Z,0
2014-08-06T03:02:58.691Z,0
2014-08-06T03:03:17.019Z,0
2014-08-06T03:03:35.349Z,0
2014-08-06T03:03:53.677Z,0
2014-08-06T03:04:12.005Z,0
2014-08-06T03:04:30.333Z,0
2014-08-06T03:04:48.679Z,0
2014-08-06T03:05:06.960Z,0
2014-08-06T03:05:25.304Z,0
2014-08-06T03:05:43.665Z,0
2014-08-06T03:06:01.962Z,0
2014-08-06T03:06:20.321Z,0
2014-08-06T03:06:38.652Z,0
2014-08-06T03:06:56.981Z,0
2014-08-06T03:07:15.324Z,0
2014-08-06T03:07:33.652Z,1
2014-08-06T03:07:51.951Z,0
2014-08-06T03:08:10.295Z,0
2014-08-06T03:08:28.654Z,0
2014-08-06T03:08:46.985Z,0
2014-08-06T03:09:05.313Z,0
2014-08-06T03:09:23.641Z,0
2014-08-06T03:09:41.971Z,0
2014-08-06T03:10:00.299Z,0
2014-08-06T03:10:18.643Z,0
2014-08-06T03:10:36.971Z,0
2014-08-06T03:10:55.472Z,0
2014-08-06T03:11:13.800Z,0
2014-08-06T03:11:32.175Z,0
2014-08-06T03:11:50.505Z,0
2014-08-06T03:12:08.833Z,0
2014-08-06T03:12:27.161Z,0
2014-08-06T03:12:45.507Z,0
2014-08-06T03:13:03.835Z,0
2014-08-06T03:13:22.163Z,0
2014-08-06T03:13:40.492Z,0
2014-08-06T03:13:58.822Z,0
2014-08-06T03:14:17.150Z,0
2014-08-06T03:14:35.494Z,0
2014-08-06T03:14:53.824Z,0
2014-08-06T03:15:12.152Z,0
2014-08-06T03:15:30.480Z,0
2014-08-06T03:15:48.810Z,0
2014-08-06T03:16:07.123Z,0
2014-08-06T03:16:25.466Z,0
2014-08-06T03:16:43.810Z,0
2014-08-06T03:17:02.140Z,0
2014-08-06T03:17:20.671Z,0
2014-08-06T03:17:38.796Z,0
2014-08-06T03:17:57.127Z,0
2014-08-06T03:18:15.455Z,0
2014-08-06T03:18:33.783Z,0
2014-08-06T03:18:52.129Z,0
2014-08-06T03:19:10.441Z,0
2014-08-06T03:19:28.785Z,0
2014-08-06T03:19:47.113Z,0
2014-08-06T03:20:05.443Z,0
2014-08-06T03:20:23.771Z,0
2014-08-06T03:20:42.099Z,0
2014-08-06T03:21:00.429Z,0
2014-08-06T03:21:18.773Z,0
2014-08-06T03:21:37.101Z,0
2014-08-06T03:21:55.431Z,0
2014-08-06T03:22:13.760Z,0
2014-08-06T03:22:32.088Z,0
2014-08-06T03:22:50.431Z,0
2014-08-06T03:23:08.745Z,0
2014-08-06T03:23:27.089Z,0
2014-08-06T03:23:45.417Z,0
2014-08-06T03:24:03.747Z,0
2014-08-06T03:24:22.075Z,0
2014-08-06T03:24:40.403Z,0
2014-08-06T03:24:58.733Z,0
2014-08-06T03:25:17.061Z,0
2014-08-06T03:25:35.390Z,0
2014-08-06T03:25:53.733Z,0
2014-08-06T03:26:12.064Z,0
2014-08-06T03:26:30.393Z,0
2014-08-06T03:26:48.721Z,0
2014-08-06T03:27:07.050Z,0
2014-08-06T03:27:25.378Z,0
2014-08-06T03:27:43.706Z,0
2014-08-06T03:28:02.037Z,0
2014-08-06T03:28:20.381Z,0
2014-08-06T03:28:38.709Z,0
2014-08-06T03:28:57.037Z,0
2014-08-06T03:29:15.366Z,0
2014-08-06T03:29:33.710Z,0
2014-08-06T03:29:52.038Z,0
2014-08-06T03:30:10.369Z,0
2014-08-06T03:30:28.697Z,0
2014-08-06T03:30:47.026Z,0
2014-08-06T03:31:05.354Z,0
2014-08-06T03:31:23.699Z,0
2014-08-06T03:31:42.028Z,0
2014-08-06T03:32:00.356Z,0
2014-08-06T03:32:18.858Z,0
2014-08-06T03:32:37.186Z,0
2014-08-06T03:32:55.514Z,0
2014-08-06T03:33:13.842Z,0
2014-08-06T03:33:32.188Z,0
2014-08-06T03:33:50.516Z,0
2014-08-06T03:34:08.844Z,0
2014-08-06T03:34:27.174Z,0
2014-08-06T03:34:45.502Z,0
2014-08-06T03:35:03.830Z,0
2014-08-06T03:35:22.159Z,0
2014-08-06T03:35:40.489Z,0
2014-08-06T03:35:58.817Z,0
2014-08-06T03:36:17.161Z,0
2014-08-06T03:36:35.491Z,0
2014-08-06T03:36:54.022Z,0
2014-08-06T03:37:12.350Z,0
2014-08-06T03:37:30.475Z,0
2014-08-06T03:37:48.805Z,0
2014-08-06T03:38:07.133Z,0
2014-08-06T03:38:25.446Z,0
2014-08-06T03:38:43.792Z,0
2014-08-06T03:39:02.135Z,0
2014-08-06T03:39:20.463Z,0
2014-08-06T03:39:38.792Z,0
2014-08-06T03:39:57.325Z,0
2014-08-06T03:40:15.450Z,0
2014-08-06T03:40:33.778Z,0
2014-08-06T03:40:52.108Z,0
2014-08-06T03:41:10.452Z,0
2014-08-06T03:41:28.780Z,0
2014-08-06T03:41:47.108Z,0
2014-08-06T03:42:05.438Z,0
2014-08-06T03:42:23.766Z,0
2014-08-06T03:42:42.094Z,0
2014-08-06T03:43:00.425Z,0
2014-08-06T03:43:18.768Z,0
2014-08-06T03:43:37.096Z,0
2014-08-06T03:43:55.425Z,0
2014-08-06T03:44:13.755Z,0
2014-08-06T03:44:32.083Z,0
2014-08-06T03:44:50.411Z,0
2014-08-06T03:45:08.741Z,0
2014-08-06T03:45:27.069Z,0
2014-08-06T03:45:45.397Z,0
2014-08-06T03:46:03.725Z,0
2014-08-06T03:46:22.071Z,0
2014-08-06T03:46:40.399Z,0
2014-08-06T03:46:58.727Z,0
2014-08-06T03:47:17.058Z,0
2014-08-06T03:47:35.589Z,0
2014-08-06T03:47:53.729Z,0
2014-08-06T03:48:12.058Z,0
2014-08-06T03:48:30.389Z,0
2014-08-06T03:48:48.717Z,0
2014-08-06T03:49:07.045Z,0
2014-08-06T03:49:25.375Z,0
2014-08-06T03:49:43.703Z,0
2014-08-06T03:50:02.047Z,0
2014-08-06T03:50:20.375Z,0
2014-08-06T03:50:38.705Z,0
2014-08-06T03:50:57.033Z,0
2014-08-06T03:51:15.361Z,0
2014-08-06T03:51:33.692Z,0
2014-08-06T03:51:52.035Z,0
2014-08-06T03:52:10.363Z,0
2014-08-06T03:52:28.707Z,0
2014-08-06T03:52:47.022Z,0
2014-08-06T03:53:05.350Z,0
2014-08-06T03:53:23.694Z,0
2014-08-06T03:53:42.024Z,0
2014-08-06T03:54:00.352Z,0
2014-08-06T03:54:18.680Z,0
2014-08-06T03:54:37.008Z,0
2014-08-06T03:54:55.338Z,0
2014-08-06T03:55:13.666Z,0
2014-08-06T03:55:32.010Z,0
2014-08-06T03:55:50.340Z,0
2014-08-06T03:56:08.668Z,0
2014-08-06T03:56:26.996Z,0
2014-08-06T03:56:45.325Z,0
2014-08-06T03:57:03.655Z,0
2014-08-06T03:57:21.983Z,0
2014-08-06T03:57:40.327Z,0
2014-08-06T03:57:58.656Z,0
2014-08-06T03:58:16.984Z,0
2014-08-06T03:58:35.312Z,0
2014-08-06T03:58:53.658Z,0
2014-08-06T03:59:12.173Z,0
2014-08-06T03:59:30.314Z,0
2014-08-06T03:59:48.642Z,0
2014-08-06T04:00:06.973Z,0
2014-08-06T04:00:25.317Z,0
2014-08-06T04:00:43.645Z,0
2014-08-06T04:01:01.959Z,0
2014-08-06T04:01:20.302Z,0
2014-08-06T04:01:38.662Z,0
2014-08-06T04:01:56.993Z,0
2014-08-06T04:02:15.321Z,0
2014-08-06T04:02:33.649Z,0
2014-08-06T04:02:51.977Z,0
2014-08-06T04:03:10.323Z,0
2014-08-06T04:03:28.651Z,1
2014-08-06T04:03:46.979Z,1
2014-08-06T04:04:05.309Z,1
2014-08-06T04:04:23.653Z,1
2014-08-06T04:04:41.966Z,1
2014-08-06T04:05:00.310Z,1
2014-08-06T04:05:18.638Z,1
2014-08-06T04:05:36.967Z,1
2014-08-06T04:05:55.295Z,1
2014-08-06T04:06:13.625Z,1
2014-08-06T04:06:31.969Z,1
2014-08-06T04:06:50.297Z,1
2014-08-06T04:07:08.627Z,1
2014-08-06T04:07:26.955Z,1
2014-08-06T04:07:45.283Z,1
2014-08-06T04:08:03.629Z,1
2014-08-06T04:08:21.957Z,1
2014-08-06T04:08:40.285Z,1
2014-08-06T04:08:58.613Z,1
2014-08-06T04:09:16.960Z,1
2014-08-06T04:09:35.288Z,1
2014-08-06T04:09:53.616Z,1
2014-08-06T04:10:11.945Z,1
2014-08-06T04:10:30.273Z,1
2014-08-06T04:10:48.602Z,1
2014-08-06T04:11:06.932Z,1
2014-08-06T04:11:25.260Z,1
2014-08-06T04:11:43.604Z,1
2014-08-06T04:12:01.932Z,1
2014-08-06T04:12:20.262Z,1
2014-08-06T04:12:38.574Z,1
2014-08-06T04:12:56.918Z,1
2014-08-06T04:13:15.248Z,2
2014-08-06T04:13:33.576Z,1
2014-08-06T04:13:51.904Z,2
2014-08-06T04:14:10.219Z,2
2014-08-06T04:14:28.563Z,2
2014-08-06T04:14:46.922Z,2
2014-08-06T04:15:05.235Z,2
2014-08-06T04:15:23.580Z,2
2014-08-06T04:15:41.908Z,2
2014-08-06T04:16:00.237Z,2
2014-08-06T04:16:18.567Z,2
2014-08-06T04:16:36.895Z,2
2014-08-06T04:16:55.223Z,2
2014-08-06T04:17:13.553Z,2
2014-08-06T04:17:31.881Z,2
2014-08-06T04:17:50.209Z,2
2014-08-06T04:18:08.537Z,2
2014-08-06T04:18:26.867Z,2
2014-08-06T04:18:45.195Z,2
2014-08-06T04:19:03.523Z,2
2014-08-06T04:19:21.853Z,2
2014-08-06T04:19:40.197Z,2
2014-08-06T04:19:58.509Z,2
2014-08-06T04:20:16.840Z,2
2014-08-06T04:20:35.168Z,2
2014-08-06T04:20:53.497Z,2
2014-08-06T04:21:11.825Z,2
2014-08-06T04:21:30.358Z,2
2014-08-06T04:21:48.483Z,2
2014-08-06T04:22:06.827Z,2
2014-08-06T04:22:25.344Z,2
2014-08-06T04:22:43.469Z,2
2014-08-06T04:23:01.797Z,2
2014-08-06T04:23:20.127Z,2
2014-08-06T04:23:38.455Z,2
2014-08-06T04:23:56.783Z,2
2014-08-06T04:24:15.111Z,2
2014-08-06T04:24:33.441Z,2
2014-08-06T04:24:51.769Z,2
2014-08-06T04:25:10.097Z,2
2014-08-06T04:25:28.427Z,3
2014-08-06T04:25:46.756Z,2
2014-08-06T04:26:05.099Z,2
2014-08-06T04:26:23.414Z,2
2014-08-06T04:26:41.742Z,2
2014-08-06T04:27:00.070Z,2
2014-08-06T04:27:18.398Z,2
2014-08-06T04:27:36.729Z,2
2014-08-06T04:27:55.057Z,2
2014-08-06T04:28:13.386Z,2
2014-08-06T04:28:31.716Z,2
2014-08-06T04:28:50.247Z,2
2014-08-06T04:29:08.372Z,2
2014-08-06T04:29:26.702Z,2
2014-08-06T04:29:45.030Z,2
2014-08-06T04:30:03.358Z,2
2014-08-06T04:30:21.686Z,2
2014-08-06T04:30:40.016Z,2
2014-08-06T04:30:58.344Z,2
2014-08-06T04:31:16.672Z,2